Overview Statistics Trail Chart Weather Telemetry Raw packets
 

This is the latest recevied weather packets stored in our database for station/object DB7GV-8. If no packets are shown the sender has not sent any weather packets the latest 10 day(s).

<< 24 25 26 27 28 29 30 >>
Time Temp. Humidity Pressure Rain* Wind** Luminosity Snow
1777138179 18.89° C 32% 1016.9 hPa - - - -
1777137273 20° C 27% 1016.8 hPa - - - -
1777136368 22.22° C 22% 1016.7 hPa - - - -
1777135463 23.33° C 20% 1016.6 hPa - - - -
1777134556 23.89° C 20% 1016.6 hPa - - - -
1777133651 24.44° C 20% 1016.5 hPa - - - -
1777132746 24.44° C 20% 1016.4 hPa - - - -
1777131841 25° C 21% 1016.4 hPa - - - -
1777130935 25.56° C 20% 1016.3 hPa - - - -
1777130030 25.56° C 21% 1016.3 hPa - - - -
1777129125 25° C 23% 1016.2 hPa - - - -
1777128219 25° C 23% 1016.2 hPa - - - -
1777127314 25.56° C 22% 1016.2 hPa - - - -
1777126408 25° C 22% 1016.2 hPa - - - -
1777125503 25° C 22% 1016.3 hPa - - - -
1777124597 25.56° C 23% 1016.4 hPa - - - -
1777123692 25.56° C 23% 1016.5 hPa - - - -
1777122787 25.56° C 22% 1016.6 hPa - - - -
1777121881 26.11° C 22% 1016.7 hPa - - - -
1777120976 25.56° C 22% 1016.6 hPa - - - -
1777120071 26.11° C 22% 1016.9 hPa - - - -
1777118260 25.56° C 22% 1017 hPa - - - -
1777117354 25.56° C 22% 1017.2 hPa - - - -
1777116448 25.56° C 21% 1017.4 hPa - - - -
1777115544 26.67° C 21% 1017.5 hPa - - - -

* Rain since midnight (hover to see other rain measurements)
** Current wind speed in m/s (hover to see current wind gust speed)